Suffield, Connecticut
Current Conditions -  °F | °C
As of 3:14 AM on Thursday 27 Nov 2014 (Local Time) from KBDL Reporting Station
Overcast Overcast  
Wind Chill: -1°   Ceiling: 2200
Heat Index:   Visibility: 9mi
Dew Point: -1°   Wind: 5mph
Humidity: 89%   Direction: 340°NNW
Pressure: 29.82"   Gusts: NA
Location:  41.98°N, 72.65°W
Report Text: KBDL 270814Z 34004KT 9SM BKN022 OVC055 01/M01 A2982 RMK AO2 SNE09 P0000 T00111006 $
Loading
Personal Weather Stations






























Interactive Weather Map New forecast layout! Learn more

10-Day Weather Forecast

Advertisements
Track Severe Weather on mobile